CEB896 RPLL-RPVM
Flight info
| Callsign | CEB896 |
|---|---|
| Flight time | 0h 58m |
| Altitude | 35000 |
| Route | IPAT22R IPATA W25 BATAY BATA3P |
| Aircraft | A320/M-L/C |
Departure
| Time | 2026-05-04 02:56 |
|---|---|
| Airport | Ninoy Aquino International Airport (RPLL) |
Arrival
| Time | 2026-05-04 03:54 |
|---|---|
| Airport | Mactan Cebu International Airport (RPVM) |
| Time | Latitude | Longitude | Altitude | Speed | Heading |
|---|---|---|---|---|---|
| 2026-05-04 02:23 | 14.51712 | 121.01472 | 69 ft | 0 kts | 44° |
| 2026-05-04 02:40 | 14.51700 | 121.01460 | 63 ft | 4 kts | 46° |
| 2026-05-04 02:40 | 14.51682 | 121.01439 | 61 ft | 4 kts | 51° |
| 2026-05-04 02:41 | 14.51666 | 121.01416 | 61 ft | 4 kts | 62° |
| 2026-05-04 02:41 | 14.51657 | 121.01392 | 65 ft | 4 kts | 95° |
| 2026-05-04 02:41 | 14.51662 | 121.01377 | 59 ft | 1 kts | 135° |
| 2026-05-04 02:41 | 14.51664 | 121.01375 | 59 ft | 0 kts | 135° |
| 2026-05-04 02:45 | 14.51662 | 121.01377 | 59 ft | 2 kts | 135° |
| 2026-05-04 02:46 | 14.51646 | 121.01394 | 60 ft | 5 kts | 134° |
| 2026-05-04 02:46 | 14.51617 | 121.01425 | 64 ft | 7 kts | 135° |
| 2026-05-04 02:46 | 14.51572 | 121.01471 | 64 ft | 11 kts | 135° |
| 2026-05-04 02:46 | 14.51509 | 121.01535 | 66 ft | 15 kts | 135° |
| 2026-05-04 02:47 | 14.51431 | 121.01616 | 63 ft | 17 kts | 135° |
| 2026-05-04 02:47 | 14.51344 | 121.01706 | 66 ft | 18 kts | 135° |
| 2026-05-04 02:47 | 14.51251 | 121.01802 | 62 ft | 20 kts | 135° |
| 2026-05-04 02:47 | 14.51152 | 121.01903 | 67 ft | 21 kts | 135° |
| 2026-05-04 02:48 | 14.51079 | 121.01979 | 64 ft | 10 kts | 135° |
| 2026-05-04 02:48 | 14.51032 | 121.01972 | 64 ft | 7 kts | 234° |
| 2026-05-04 02:48 | 14.51010 | 121.01934 | 66 ft | 0 kts | 240° |
| 2026-05-04 02:49 | 14.51010 | 121.01932 | 66 ft | 2 kts | 240° |
| 2026-05-04 02:49 | 14.50981 | 121.01880 | 66 ft | 13 kts | 240° |
| 2026-05-04 02:49 | 14.50938 | 121.01804 | 62 ft | 12 kts | 240° |
| 2026-05-04 02:49 | 14.50900 | 121.01735 | 62 ft | 10 kts | 240° |
| 2026-05-04 02:50 | 14.50866 | 121.01674 | 63 ft | 9 kts | 240° |
| 2026-05-04 02:50 | 14.50837 | 121.01622 | 65 ft | 8 kts | 240° |
| 2026-05-04 02:50 | 14.50795 | 121.01548 | 66 ft | 20 kts | 240° |
| 2026-05-04 02:50 | 14.50722 | 121.01415 | 64 ft | 22 kts | 240° |
| 2026-05-04 02:51 | 14.50646 | 121.01279 | 64 ft | 22 kts | 240° |
| 2026-05-04 02:51 | 14.50568 | 121.01140 | 59 ft | 23 kts | 240° |
| 2026-05-04 02:51 | 14.50486 | 121.00992 | 59 ft | 24 kts | 240° |
| 2026-05-04 02:51 | 14.50399 | 121.00836 | 64 ft | 26 kts | 240° |
| 2026-05-04 02:52 | 14.50307 | 121.00671 | 63 ft | 27 kts | 240° |
| 2026-05-04 02:52 | 14.50212 | 121.00501 | 58 ft | 28 kts | 240° |
| 2026-05-04 02:52 | 14.50112 | 121.00321 | 62 ft | 29 kts | 240° |
| 2026-05-04 02:52 | 14.50010 | 121.00138 | 59 ft | 30 kts | 240° |
| 2026-05-04 02:53 | 14.49944 | 121.00018 | 65 ft | 13 kts | 240° |
| 2026-05-04 02:53 | 14.49905 | 120.99964 | 67 ft | 6 kts | 204° |
| 2026-05-04 02:53 | 14.49876 | 120.99968 | 67 ft | 0 kts | 159° |
| 2026-05-04 02:54 | 14.49839 | 120.99987 | 66 ft | 12 kts | 152° |
| 2026-05-04 02:54 | 14.49804 | 121.00017 | 67 ft | 5 kts | 113° |
| 2026-05-04 02:54 | 14.49808 | 121.00047 | 62 ft | 3 kts | 65° |
| 2026-05-04 02:55 | 14.49810 | 121.00051 | 63 ft | 0 kts | 62° |
| 2026-05-04 02:55 | 14.49811 | 121.00052 | 63 ft | 1 kts | 62° |
| 2026-05-04 02:55 | 14.49897 | 121.00211 | 64 ft | 61 kts | 60° |
| 2026-05-04 02:56 | 14.50218 | 121.00786 | 64 ft | 121 kts | 60° |
| 2026-05-04 02:56 | 14.50724 | 121.01698 | 88 ft | 167 kts | 61° |
| 2026-05-04 02:56 | 14.51309 | 121.02742 | 691 ft | 168 kts | 61° |
| 2026-05-04 02:56 | 14.51887 | 121.03794 | 1359 ft | 170 kts | 60° |
| 2026-05-04 02:57 | 14.52477 | 121.04855 | 1957 ft | 176 kts | 60° |
| 2026-05-04 02:57 | 14.53126 | 121.06019 | 2331 ft | 197 kts | 60° |
| 2026-05-04 02:57 | 14.53840 | 121.07305 | 2712 ft | 221 kts | 62° |
| 2026-05-04 02:57 | 14.54648 | 121.08765 | 3135 ft | 246 kts | 61° |
| 2026-05-04 02:58 | 14.55526 | 121.10349 | 3798 ft | 257 kts | 61° |
| 2026-05-04 02:58 | 14.56420 | 121.11959 | 4678 ft | 259 kts | 61° |
| 2026-05-04 02:58 | 14.57164 | 121.13656 | 5526 ft | 261 kts | 73° |
| 2026-05-04 02:58 | 14.57483 | 121.15511 | 6341 ft | 264 kts | 83° |
| 2026-05-04 02:59 | 14.57693 | 121.17409 | 7092 ft | 268 kts | 82° |
| 2026-05-04 02:59 | 14.57909 | 121.19337 | 7820 ft | 272 kts | 82° |
| 2026-05-04 02:59 | 14.58127 | 121.21271 | 8536 ft | 277 kts | 83° |
| 2026-05-04 02:59 | 14.58332 | 121.23265 | 9239 ft | 282 kts | 87° |
| 2026-05-04 03:00 | 14.58082 | 121.25287 | 9937 ft | 287 kts | 106° |
| 2026-05-04 03:00 | 14.57176 | 121.27157 | 10396 ft | 303 kts | 124° |
| 2026-05-04 03:00 | 14.55572 | 121.28710 | 10544 ft | 329 kts | 142° |
| 2026-05-04 03:00 | 14.53683 | 121.30145 | 10875 ft | 342 kts | 142° |
| 2026-05-04 03:01 | 14.51750 | 121.31607 | 11485 ft | 346 kts | 141° |
| 2026-05-04 03:01 | 14.49799 | 121.33084 | 12125 ft | 348 kts | 141° |
| 2026-05-04 03:01 | 14.47869 | 121.34553 | 12777 ft | 350 kts | 141° |
| 2026-05-04 03:01 | 14.45901 | 121.36059 | 13414 ft | 353 kts | 141° |
| 2026-05-04 03:02 | 14.43916 | 121.37584 | 13986 ft | 356 kts | 141° |
| 2026-05-04 03:02 | 14.41917 | 121.39117 | 14520 ft | 359 kts | 141° |
| 2026-05-04 03:02 | 14.39897 | 121.40666 | 15064 ft | 362 kts | 142° |
| 2026-05-04 03:02 | 14.38551 | 121.41697 | 15412 ft | 364 kts | 141° |
| 2026-05-04 03:03 | 14.35824 | 121.43789 | 16134 ft | 368 kts | 141° |
| 2026-05-04 03:03 | 14.33788 | 121.45351 | 16648 ft | 371 kts | 141° |
| 2026-05-04 03:03 | 14.31704 | 121.46945 | 17179 ft | 373 kts | 142° |
| 2026-05-04 03:03 | 14.29603 | 121.48547 | 17666 ft | 377 kts | 142° |
| 2026-05-04 03:04 | 14.27484 | 121.50164 | 18176 ft | 380 kts | 142° |
| 2026-05-04 03:04 | 14.25350 | 121.51792 | 18597 ft | 383 kts | 142° |
| 2026-05-04 03:04 | 14.23924 | 121.52880 | 18888 ft | 385 kts | 142° |
| 2026-05-04 03:04 | 14.21053 | 121.55075 | 19454 ft | 388 kts | 142° |
| 2026-05-04 03:05 | 14.18869 | 121.56743 | 19880 ft | 391 kts | 143° |
| 2026-05-04 03:05 | 14.16678 | 121.58412 | 20345 ft | 392 kts | 142° |
| 2026-05-04 03:05 | 14.15192 | 121.59543 | 20617 ft | 394 kts | 143° |
| 2026-05-04 03:05 | 14.13003 | 121.61208 | 20993 ft | 397 kts | 143° |
| 2026-05-04 03:06 | 14.10774 | 121.62902 | 21382 ft | 400 kts | 143° |
| 2026-05-04 03:06 | 14.08523 | 121.64611 | 21751 ft | 404 kts | 143° |
| 2026-05-04 03:06 | 14.06261 | 121.66334 | 22190 ft | 405 kts | 143° |
| 2026-05-04 03:06 | 14.03987 | 121.68071 | 22573 ft | 408 kts | 143° |
| 2026-05-04 03:07 | 14.01706 | 121.69815 | 23002 ft | 409 kts | 143° |
| 2026-05-04 03:07 | 13.99413 | 121.71567 | 23375 ft | 412 kts | 143° |
| 2026-05-04 03:07 | 13.97100 | 121.73331 | 23692 ft | 415 kts | 143° |
| 2026-05-04 03:07 | 13.94766 | 121.75109 | 23982 ft | 418 kts | 143° |
| 2026-05-04 03:08 | 13.92417 | 121.76894 | 24257 ft | 421 kts | 143° |
| 2026-05-04 03:08 | 13.90059 | 121.78686 | 24585 ft | 422 kts | 144° |
| 2026-05-04 03:08 | 13.87718 | 121.80466 | 24874 ft | 424 kts | 144° |
| 2026-05-04 03:08 | 13.85333 | 121.82278 | 25206 ft | 425 kts | 144° |
| 2026-05-04 03:09 | 13.82943 | 121.84088 | 25499 ft | 428 kts | 144° |
| 2026-05-04 03:09 | 13.80532 | 121.85913 | 25775 ft | 430 kts | 144° |
| 2026-05-04 03:09 | 13.78111 | 121.87744 | 26051 ft | 433 kts | 144° |
| 2026-05-04 03:09 | 13.75670 | 121.89587 | 26331 ft | 435 kts | 144° |
| 2026-05-04 03:10 | 13.73221 | 121.91435 | 26609 ft | 437 kts | 144° |
| 2026-05-04 03:10 | 13.70763 | 121.93289 | 26888 ft | 439 kts | 144° |
| 2026-05-04 03:10 | 13.68289 | 121.95155 | 27160 ft | 441 kts | 144° |
| 2026-05-04 03:10 | 13.65809 | 121.97023 | 27428 ft | 443 kts | 144° |
| 2026-05-04 03:11 | 13.63320 | 121.98898 | 27738 ft | 444 kts | 144° |
| 2026-05-04 03:11 | 13.60845 | 122.00759 | 28008 ft | 446 kts | 144° |
| 2026-05-04 03:11 | 13.58328 | 122.02653 | 28267 ft | 448 kts | 144° |
| 2026-05-04 03:11 | 13.55803 | 122.04556 | 28560 ft | 450 kts | 144° |
| 2026-05-04 03:12 | 13.53268 | 122.06465 | 28821 ft | 452 kts | 144° |
| 2026-05-04 03:12 | 13.50727 | 122.08375 | 29095 ft | 454 kts | 144° |
| 2026-05-04 03:12 | 13.48204 | 122.10270 | 29350 ft | 455 kts | 144° |
| 2026-05-04 03:12 | 13.45639 | 122.12199 | 29592 ft | 457 kts | 144° |
| 2026-05-04 03:13 | 13.43067 | 122.14138 | 29832 ft | 459 kts | 144° |
| 2026-05-04 03:13 | 13.40479 | 122.16089 | 30048 ft | 461 kts | 144° |
| 2026-05-04 03:13 | 13.37882 | 122.18043 | 30258 ft | 462 kts | 144° |
| 2026-05-04 03:13 | 13.35279 | 122.19999 | 30467 ft | 464 kts | 144° |
| 2026-05-04 03:14 | 13.32702 | 122.21933 | 30683 ft | 465 kts | 144° |
| 2026-05-04 03:14 | 13.30087 | 122.23897 | 30900 ft | 466 kts | 144° |
| 2026-05-04 03:14 | 13.27465 | 122.25863 | 31120 ft | 466 kts | 144° |
| 2026-05-04 03:14 | 13.24848 | 122.27823 | 31413 ft | 466 kts | 144° |
| 2026-05-04 03:15 | 13.22228 | 122.29789 | 31696 ft | 465 kts | 144° |
| 2026-05-04 03:15 | 13.19622 | 122.31745 | 32000 ft | 464 kts | 144° |
| 2026-05-04 03:15 | 13.17015 | 122.33701 | 32301 ft | 463 kts | 144° |
| 2026-05-04 03:15 | 13.14449 | 122.35624 | 32604 ft | 462 kts | 144° |
| 2026-05-04 03:16 | 13.11859 | 122.37564 | 32912 ft | 461 kts | 144° |
| 2026-05-04 03:16 | 13.09271 | 122.39503 | 33208 ft | 460 kts | 144° |
| 2026-05-04 03:16 | 13.06685 | 122.41441 | 33494 ft | 460 kts | 144° |
| 2026-05-04 03:16 | 13.04100 | 122.43376 | 33769 ft | 460 kts | 144° |
| 2026-05-04 03:17 | 13.01521 | 122.45311 | 34069 ft | 458 kts | 144° |
| 2026-05-04 03:17 | 12.98948 | 122.47242 | 34322 ft | 458 kts | 145° |
| 2026-05-04 03:17 | 12.96374 | 122.49169 | 34568 ft | 458 kts | 144° |
| 2026-05-04 03:17 | 12.93801 | 122.51091 | 34791 ft | 458 kts | 145° |
| 2026-05-04 03:18 | 12.91217 | 122.53019 | 34920 ft | 458 kts | 145° |
| 2026-05-04 03:18 | 12.86130 | 122.56817 | 34964 ft | 453 kts | 144° |
| 2026-05-04 03:19 | 12.81034 | 122.60626 | 34964 ft | 452 kts | 144° |
| 2026-05-04 03:19 | 12.75951 | 122.64426 | 34961 ft | 452 kts | 144° |
| 2026-05-04 03:20 | 12.70855 | 122.68229 | 34959 ft | 452 kts | 145° |
| 2026-05-04 03:20 | 12.65764 | 122.72018 | 34962 ft | 453 kts | 145° |
| 2026-05-04 03:21 | 12.60671 | 122.75818 | 34962 ft | 453 kts | 144° |
| 2026-05-04 03:21 | 12.55618 | 122.79598 | 34966 ft | 452 kts | 144° |
| 2026-05-04 03:22 | 12.50528 | 122.83396 | 34971 ft | 452 kts | 144° |
| 2026-05-04 03:22 | 12.45433 | 122.87183 | 34971 ft | 452 kts | 145° |
| 2026-05-04 03:23 | 12.40341 | 122.90966 | 34965 ft | 452 kts | 145° |
| 2026-05-04 03:23 | 12.35250 | 122.94757 | 34796 ft | 453 kts | 145° |
| 2026-05-04 03:23 | 12.32704 | 122.96654 | 34566 ft | 452 kts | 145° |
| 2026-05-04 03:24 | 12.30160 | 122.98550 | 34339 ft | 452 kts | 144° |
| 2026-05-04 03:24 | 12.27616 | 123.00445 | 34115 ft | 453 kts | 144° |
| 2026-05-04 03:24 | 12.25072 | 123.02335 | 33883 ft | 451 kts | 144° |
| 2026-05-04 03:24 | 12.22533 | 123.04217 | 33627 ft | 450 kts | 144° |
| 2026-05-04 03:25 | 12.20003 | 123.06091 | 33375 ft | 447 kts | 144° |
| 2026-05-04 03:25 | 12.17487 | 123.07953 | 33124 ft | 445 kts | 144° |
| 2026-05-04 03:25 | 12.14984 | 123.09807 | 32871 ft | 443 kts | 144° |
| 2026-05-04 03:25 | 12.12526 | 123.11631 | 32628 ft | 442 kts | 144° |
| 2026-05-04 03:26 | 12.10037 | 123.13480 | 32380 ft | 440 kts | 144° |
| 2026-05-04 03:26 | 12.07568 | 123.15315 | 32134 ft | 438 kts | 144° |
| 2026-05-04 03:26 | 12.05105 | 123.17145 | 31893 ft | 436 kts | 144° |
| 2026-05-04 03:26 | 12.02665 | 123.18958 | 31659 ft | 433 kts | 143° |
| 2026-05-04 03:27 | 12.00239 | 123.20759 | 31420 ft | 429 kts | 143° |
| 2026-05-04 03:27 | 11.97823 | 123.22551 | 31183 ft | 428 kts | 143° |
| 2026-05-04 03:27 | 11.95406 | 123.24339 | 30953 ft | 428 kts | 143° |
| 2026-05-04 03:27 | 11.92997 | 123.26122 | 30724 ft | 427 kts | 143° |
| 2026-05-04 03:28 | 11.90589 | 123.27903 | 30494 ft | 426 kts | 143° |
| 2026-05-04 03:28 | 11.88192 | 123.29678 | 30267 ft | 425 kts | 143° |
| 2026-05-04 03:28 | 11.85804 | 123.31450 | 30042 ft | 423 kts | 143° |
| 2026-05-04 03:28 | 11.83455 | 123.33194 | 29793 ft | 422 kts | 143° |
| 2026-05-04 03:29 | 11.81080 | 123.34957 | 29521 ft | 420 kts | 143° |
| 2026-05-04 03:29 | 11.78717 | 123.36707 | 29261 ft | 418 kts | 143° |
| 2026-05-04 03:29 | 11.76363 | 123.38446 | 29001 ft | 417 kts | 143° |
| 2026-05-04 03:29 | 11.74017 | 123.40175 | 28694 ft | 415 kts | 143° |
| 2026-05-04 03:30 | 11.71679 | 123.41899 | 28261 ft | 412 kts | 143° |
| 2026-05-04 03:30 | 11.69363 | 123.43606 | 27842 ft | 409 kts | 143° |
| 2026-05-04 03:30 | 11.67067 | 123.45301 | 27418 ft | 406 kts | 143° |
| 2026-05-04 03:30 | 11.64782 | 123.46991 | 27004 ft | 403 kts | 143° |
| 2026-05-04 03:31 | 11.62544 | 123.48645 | 26610 ft | 401 kts | 143° |
| 2026-05-04 03:31 | 11.60292 | 123.50308 | 26214 ft | 398 kts | 143° |
| 2026-05-04 03:31 | 11.58057 | 123.51958 | 25821 ft | 396 kts | 143° |
| 2026-05-04 03:31 | 11.55835 | 123.53597 | 25433 ft | 393 kts | 143° |
| 2026-05-04 03:32 | 11.53625 | 123.55228 | 25048 ft | 391 kts | 143° |
| 2026-05-04 03:32 | 11.51427 | 123.56849 | 24671 ft | 389 kts | 143° |
| 2026-05-04 03:32 | 11.49242 | 123.58463 | 24297 ft | 386 kts | 143° |
| 2026-05-04 03:32 | 11.47074 | 123.60069 | 23916 ft | 384 kts | 143° |
| 2026-05-04 03:33 | 11.44921 | 123.61661 | 23562 ft | 381 kts | 143° |
| 2026-05-04 03:33 | 11.42782 | 123.63239 | 23137 ft | 377 kts | 143° |
| 2026-05-04 03:33 | 11.40694 | 123.64779 | 22695 ft | 364 kts | 143° |
| 2026-05-04 03:33 | 11.38663 | 123.66275 | 22267 ft | 357 kts | 143° |
| 2026-05-04 03:34 | 11.36664 | 123.67749 | 21850 ft | 355 kts | 143° |
| 2026-05-04 03:34 | 11.34666 | 123.69222 | 21438 ft | 353 kts | 143° |
| 2026-05-04 03:34 | 11.32682 | 123.70686 | 21028 ft | 351 kts | 143° |
| 2026-05-04 03:34 | 11.30849 | 123.72035 | 20652 ft | 349 kts | 143° |
| 2026-05-04 03:35 | 11.28878 | 123.73483 | 20250 ft | 347 kts | 143° |
| 2026-05-04 03:35 | 11.26920 | 123.74919 | 19853 ft | 346 kts | 142° |
| 2026-05-04 03:35 | 11.24975 | 123.76350 | 19469 ft | 345 kts | 142° |
| 2026-05-04 03:35 | 11.23035 | 123.77777 | 19085 ft | 343 kts | 142° |
| 2026-05-04 03:36 | 11.21117 | 123.79190 | 18702 ft | 336 kts | 142° |
| 2026-05-04 03:36 | 11.19233 | 123.80575 | 18323 ft | 332 kts | 142° |
| 2026-05-04 03:36 | 11.17331 | 123.81902 | 17907 ft | 331 kts | 148° |
| 2026-05-04 03:36 | 11.15237 | 123.82871 | 17480 ft | 332 kts | 159° |
| 2026-05-04 03:37 | 11.13009 | 123.83386 | 17066 ft | 335 kts | 171° |
| 2026-05-04 03:37 | 11.10674 | 123.83436 | 16647 ft | 337 kts | 182° |
| 2026-05-04 03:37 | 11.08354 | 123.83004 | 16224 ft | 340 kts | 193° |
| 2026-05-04 03:37 | 11.06079 | 123.82363 | 15822 ft | 336 kts | 193° |
| 2026-05-04 03:38 | 11.03839 | 123.81731 | 15423 ft | 333 kts | 193° |
| 2026-05-04 03:38 | 11.01608 | 123.81105 | 15027 ft | 333 kts | 193° |
| 2026-05-04 03:38 | 10.99368 | 123.80479 | 14636 ft | 334 kts | 193° |
| 2026-05-04 03:38 | 10.97134 | 123.79858 | 14279 ft | 329 kts | 193° |
| 2026-05-04 03:39 | 10.94947 | 123.79250 | 14057 ft | 323 kts | 193° |
| 2026-05-04 03:39 | 10.92786 | 123.78647 | 13828 ft | 321 kts | 193° |
| 2026-05-04 03:39 | 10.90639 | 123.78048 | 13592 ft | 320 kts | 193° |
| 2026-05-04 03:39 | 10.88499 | 123.77450 | 13338 ft | 318 kts | 193° |
| 2026-05-04 03:40 | 10.86364 | 123.76853 | 13088 ft | 318 kts | 193° |
| 2026-05-04 03:40 | 10.84262 | 123.76265 | 12837 ft | 316 kts | 193° |
| 2026-05-04 03:40 | 10.82150 | 123.75675 | 12593 ft | 314 kts | 193° |
| 2026-05-04 03:40 | 10.80045 | 123.75090 | 12348 ft | 313 kts | 193° |
| 2026-05-04 03:41 | 10.77951 | 123.74509 | 12104 ft | 312 kts | 193° |
| 2026-05-04 03:41 | 10.75860 | 123.73927 | 11862 ft | 311 kts | 193° |
| 2026-05-04 03:41 | 10.73777 | 123.73345 | 11622 ft | 309 kts | 194° |
| 2026-05-04 03:41 | 10.71703 | 123.72763 | 11386 ft | 308 kts | 194° |
| 2026-05-04 03:42 | 10.69634 | 123.72185 | 11146 ft | 307 kts | 194° |
| 2026-05-04 03:42 | 10.67580 | 123.71613 | 10911 ft | 306 kts | 194° |
| 2026-05-04 03:42 | 10.65530 | 123.71042 | 10679 ft | 304 kts | 194° |
| 2026-05-04 03:42 | 10.63494 | 123.70477 | 10450 ft | 303 kts | 194° |
| 2026-05-04 03:43 | 10.61493 | 123.69922 | 10223 ft | 302 kts | 194° |
| 2026-05-04 03:43 | 10.59469 | 123.69358 | 9995 ft | 301 kts | 194° |
| 2026-05-04 03:43 | 10.57454 | 123.68796 | 9861 ft | 300 kts | 194° |
| 2026-05-04 03:43 | 10.55442 | 123.68237 | 9738 ft | 300 kts | 194° |
| 2026-05-04 03:44 | 10.53422 | 123.67676 | 9607 ft | 300 kts | 194° |
| 2026-05-04 03:44 | 10.51402 | 123.67113 | 9480 ft | 300 kts | 194° |
| 2026-05-04 03:44 | 10.50065 | 123.66742 | 9396 ft | 300 kts | 194° |
| 2026-05-04 03:44 | 10.47688 | 123.66082 | 9244 ft | 299 kts | 194° |
| 2026-05-04 03:45 | 10.45687 | 123.65525 | 9131 ft | 298 kts | 194° |
| 2026-05-04 03:45 | 10.43690 | 123.64968 | 8997 ft | 297 kts | 194° |
| 2026-05-04 03:45 | 10.41686 | 123.64410 | 8872 ft | 297 kts | 194° |
| 2026-05-04 03:45 | 10.39700 | 123.63857 | 8743 ft | 296 kts | 194° |
| 2026-05-04 03:46 | 10.37702 | 123.63322 | 8629 ft | 295 kts | 188° |
| 2026-05-04 03:46 | 10.35676 | 123.63238 | 8505 ft | 291 kts | 170° |
| 2026-05-04 03:46 | 10.33747 | 123.63791 | 8383 ft | 287 kts | 153° |
| 2026-05-04 03:46 | 10.32097 | 123.64900 | 8260 ft | 284 kts | 135° |
| 2026-05-04 03:47 | 10.30697 | 123.66319 | 8132 ft | 283 kts | 133° |
| 2026-05-04 03:47 | 10.29317 | 123.67726 | 7923 ft | 277 kts | 133° |
| 2026-05-04 03:47 | 10.27973 | 123.69092 | 7575 ft | 276 kts | 133° |
| 2026-05-04 03:47 | 10.26800 | 123.70281 | 7256 ft | 276 kts | 133° |
| 2026-05-04 03:48 | 10.25436 | 123.71664 | 6874 ft | 276 kts | 133° |
| 2026-05-04 03:48 | 10.24100 | 123.73022 | 6494 ft | 265 kts | 133° |
| 2026-05-04 03:48 | 10.22821 | 123.74318 | 6137 ft | 255 kts | 133° |
| 2026-05-04 03:48 | 10.21585 | 123.75569 | 5777 ft | 246 kts | 133° |
| 2026-05-04 03:49 | 10.20408 | 123.76763 | 5446 ft | 237 kts | 133° |
| 2026-05-04 03:49 | 10.19267 | 123.77925 | 5128 ft | 230 kts | 133° |
| 2026-05-04 03:49 | 10.18136 | 123.79076 | 4824 ft | 229 kts | 133° |
| 2026-05-04 03:49 | 10.17013 | 123.80220 | 4496 ft | 229 kts | 132° |
| 2026-05-04 03:50 | 10.16149 | 123.81538 | 4175 ft | 224 kts | 103° |
| 2026-05-04 03:50 | 10.16215 | 123.83086 | 3862 ft | 224 kts | 67° |
| 2026-05-04 03:50 | 10.17149 | 123.84331 | 3554 ft | 224 kts | 47° |
| 2026-05-04 03:50 | 10.18257 | 123.85439 | 3238 ft | 220 kts | 45° |
| 2026-05-04 03:51 | 10.19340 | 123.86512 | 2922 ft | 214 kts | 45° |
| 2026-05-04 03:51 | 10.20040 | 123.87205 | 2705 ft | 210 kts | 46° |
| 2026-05-04 03:51 | 10.21072 | 123.88229 | 2419 ft | 205 kts | 46° |
| 2026-05-04 03:51 | 10.22402 | 123.89553 | 2061 ft | 198 kts | 46° |
| 2026-05-04 03:52 | 10.23366 | 123.90512 | 1821 ft | 188 kts | 46° |
| 2026-05-04 03:52 | 10.23976 | 123.91125 | 1687 ft | 177 kts | 48° |
| 2026-05-04 03:52 | 10.25090 | 123.92192 | 1466 ft | 154 kts | 45° |
| 2026-05-04 03:52 | 10.25589 | 123.92681 | 1390 ft | 148 kts | 47° |
| 2026-05-04 03:53 | 10.26314 | 123.93407 | 1134 ft | 143 kts | 49° |
| 2026-05-04 03:53 | 10.26974 | 123.94115 | 998 ft | 139 kts | 49° |
| 2026-05-04 03:53 | 10.27651 | 123.94828 | 798 ft | 140 kts | 46° |
| 2026-05-04 03:53 | 10.28345 | 123.95506 | 608 ft | 140 kts | 44° |
| 2026-05-04 03:54 | 10.29033 | 123.96215 | 324 ft | 139 kts | 46° |
| 2026-05-04 03:54 | 10.29711 | 123.96901 | 99 ft | 137 kts | 44° |
| 2026-05-04 03:54 | 10.30363 | 123.97542 | 38 ft | 116 kts | 46° |
| 2026-05-04 03:54 | 10.30723 | 123.97910 | 35 ft | 30 kts | 46° |
| 2026-05-04 03:55 | 10.30835 | 123.98025 | 34 ft | 22 kts | 43° |
| 2026-05-04 03:55 | 10.30945 | 123.98131 | 36 ft | 21 kts | 43° |
| 2026-05-04 03:55 | 10.31052 | 123.98232 | 37 ft | 21 kts | 41° |
| 2026-05-04 03:55 | 10.31171 | 123.98308 | 36 ft | 20 kts | 23° |
| 2026-05-04 03:56 | 10.31298 | 123.98352 | 39 ft | 15 kts | 9° |
| 2026-05-04 03:56 | 10.31396 | 123.98315 | 39 ft | 17 kts | 315° |
| 2026-05-04 03:56 | 10.31483 | 123.98230 | 39 ft | 18 kts | 316° |
| 2026-05-04 03:56 | 10.31556 | 123.98152 | 39 ft | 10 kts | 312° |
| 2026-05-04 03:57 | 10.31557 | 123.98099 | 37 ft | 8 kts | 232° |
| 2026-05-04 03:57 | 10.31523 | 123.98063 | 39 ft | 7 kts | 225° |
| 2026-05-04 03:57 | 10.31506 | 123.98037 | 39 ft | 3 kts | 269° |
| 2026-05-04 03:57 | 10.31519 | 123.98017 | 37 ft | 6 kts | 310° |
| 2026-05-04 03:58 | 10.31554 | 123.97980 | 39 ft | 0 kts | 315° |